Portada
METAR-TAF:

METAR-TAF

Aeroports :

Price County Airport

Phillips, Wisconsin, Estats Units d'Amèrica

latitud: 45-42N, longitud: 090-24W, altitud: 449 m

Observació

L'informe es va fer fa 23 minuts, a les 18:35 UTC
Vent 5 kt del Sud/Sud-Est
Temperatura 18°C
Humitat 59%
Pressió 1020 hPa
Visibilitat: 16.1 km
Núvols disperses a una alçada de 4100 ft
Núvols disperses a una alçada de 4700 ft

METAR: KPBH 231835Z AUTO 15005KT 10SM SCT041 SCT047 18/10 A3012 RMK AO2 T01790103

Hora: 13:58 (18:58 UTC)


TAF: manca

Observacions i pronòstics meteorològics de més de 4000 aeroports (METAR i TAF).

Les estacions disponibles són els punts grocs i vermells al mapa.

Posi el ratolí al punt desitjat per veure el nom de l'estació.

Feu clic per veure les observacions i els pronòstics meteorològics.

Per canviar el mapa: feu clic els botons verds amb una creu de color negre per apropar; al botó verd amb un guió per allunyar la imatge; o en les fletxes verdes per a mapes adjacents.


METAR-TAF: